sensor_id;sensor_type;location;lat;lon;timestamp;temperature;humidity
60473;DHT22;46318;52.716;6.444;2023-03-31T00:01:36;10.90;99.90
60473;DHT22;46318;52.716;6.444;2023-03-31T00:04:07;10.80;99.90
60473;DHT22;46318;52.716;6.444;2023-03-31T00:06:37;10.80;99.90
60473;DHT22;46318;52.716;6.444;2023-03-31T00:09:11;10.80;99.90
60473;DHT22;46318;52.716;6.444;2023-03-31T00:11:44;10.80;99.90
60473;DHT22;46318;52.716;6.444;2023-03-31T00:14:10;10.80;99.90
60473;DHT22;46318;52.716;6.444;2023-03-31T00:16:37;10.70;99.90
60473;DHT22;46318;52.716;6.444;2023-03-31T00:19:04;10.70;99.90
60473;DHT22;46318;52.716;6.444;2023-03-31T00:21:35;10.70;99.90
60473;DHT22;46318;52.716;6.444;2023-03-31T00:24:09;10.70;99.90
60473;DHT22;46318;52.716;6.444;2023-03-31T00:26:36;10.70;99.90
60473;DHT22;46318;52.716;6.444;2023-03-31T00:29:04;10.60;99.90
60473;DHT22;46318;52.716;6.444;2023-03-31T00:31:31;10.60;99.90
60473;DHT22;46318;52.716;6.444;2023-03-31T00:33:58;10.60;99.90
60473;DHT22;46318;52.716;6.444;2023-03-31T00:36:24;10.60;99.90
60473;DHT22;46318;52.716;6.444;2023-03-31T00:38:57;10.60;99.90
60473;DHT22;46318;52.716;6.444;2023-03-31T00:41:24;10.60;99.90
60473;DHT22;46318;52.716;6.444;2023-03-31T00:44:17;10.50;99.90
60473;DHT22;46318;52.716;6.444;2023-03-31T00:47:12;10.50;99.90
60473;DHT22;46318;52.716;6.444;2023-03-31T00:49:46;10.50;99.90
60473;DHT22;46318;52.716;6.444;2023-03-31T00:52:20;10.50;99.90
60473;DHT22;46318;52.716;6.444;2023-03-31T00:55:01;10.50;99.90
60473;DHT22;46318;52.716;6.444;2023-03-31T00:57:32;10.40;99.90
60473;DHT22;46318;52.716;6.444;2023-03-31T01:00:07;10.40;99.90
60473;DHT22;46318;52.716;6.444;2023-03-31T01:02:41;10.40;99.90
60473;DHT22;46318;52.716;6.444;2023-03-31T01:06:03;10.40;99.90
60473;DHT22;46318;52.716;6.444;2023-03-31T01:08:15;10.30;99.90
60473;DHT22;46318;52.716;6.444;2023-03-31T01:10:46;10.30;99.90
60473;DHT22;46318;52.716;6.444;2023-03-31T01:13:15;10.30;99.90
60473;DHT22;46318;52.716;6.444;2023-03-31T01:15:42;10.30;99.90
60473;DHT22;46318;52.716;6.444;2023-03-31T01:18:09;10.30;99.90
60473;DHT22;46318;52.716;6.444;2023-03-31T01:47:08;10.10;99.90
60473;DHT22;46318;52.716;6.444;2023-03-31T01:50:01;10.10;99.90
60473;DHT22;46318;52.716;6.444;2023-03-31T01:55:11;10.10;99.90
60473;DHT22;46318;52.716;6.444;2023-03-31T01:57:47;10.10;99.90
60473;DHT22;46318;52.716;6.444;2023-03-31T02:00:18;10.10;99.90
60473;DHT22;46318;52.716;6.444;2023-03-31T02:03:13;10.10;99.90
60473;DHT22;46318;52.716;6.444;2023-03-31T02:05:53;10.10;99.90
60473;DHT22;46318;52.716;6.444;2023-03-31T02:08:31;10.10;99.90
60473;DHT22;46318;52.716;6.444;2023-03-31T02:11:03;10.00;99.90
60473;DHT22;46318;52.716;6.444;2023-03-31T02:13:29;10.00;99.90
60473;DHT22;46318;52.716;6.444;2023-03-31T02:16:03;10.10;99.90
60473;DHT22;46318;52.716;6.444;2023-03-31T02:18:32;10.00;99.90
60473;DHT22;46318;52.716;6.444;2023-03-31T02:21:04;10.00;99.90
60473;DHT22;46318;52.716;6.444;2023-03-31T02:23:32;10.00;99.90
60473;DHT22;46318;52.716;6.444;2023-03-31T02:26:15;10.00;99.90
60473;DHT22;46318;52.716;6.444;2023-03-31T02:28:43;10.00;99.90
60473;DHT22;46318;52.716;6.444;2023-03-31T02:34:06;10.00;99.90
60473;DHT22;46318;52.716;6.444;2023-03-31T02:36:33;10.00;99.90
60473;DHT22;46318;52.716;6.444;2023-03-31T02:39:07;10.00;99.90
60473;DHT22;46318;52.716;6.444;2023-03-31T02:41:35;10.00;99.90
60473;DHT22;46318;52.716;6.444;2023-03-31T02:44:01;10.00;99.90
60473;DHT22;46318;52.716;6.444;2023-03-31T02:46:27;10.00;99.90
60473;DHT22;46318;52.716;6.444;2023-03-31T02:48:56;10.00;99.90
60473;DHT22;46318;52.716;6.444;2023-03-31T03:06:04;10.00;99.90
60473;DHT22;46318;52.716;6.444;2023-03-31T03:08:38;10.00;99.90
60473;DHT22;46318;52.716;6.444;2023-03-31T03:17:29;10.00;99.90
60473;DHT22;46318;52.716;6.444;2023-03-31T03:19:58;10.00;99.90
60473;DHT22;46318;52.716;6.444;2023-03-31T03:22:25;10.00;99.90
60473;DHT22;46318;52.716;6.444;2023-03-31T03:24:52;10.00;99.90
60473;DHT22;46318;52.716;6.444;2023-03-31T03:27:19;10.00;99.90
60473;DHT22;46318;52.716;6.444;2023-03-31T03:29:48;10.10;99.90
60473;DHT22;46318;52.716;6.444;2023-03-31T03:32:14;10.10;99.90
60473;DHT22;46318;52.716;6.444;2023-03-31T03:34:40;10.00;99.90
60473;DHT22;46318;52.716;6.444;2023-03-31T03:37:05;10.00;99.90
60473;DHT22;46318;52.716;6.444;2023-03-31T03:39:32;10.00;99.90
60473;DHT22;46318;52.716;6.444;2023-03-31T03:41:57;10.00;99.90
60473;DHT22;46318;52.716;6.444;2023-03-31T03:44:23;10.00;99.90
60473;DHT22;46318;52.716;6.444;2023-03-31T03:46:49;10.00;99.90
60473;DHT22;46318;52.716;6.444;2023-03-31T03:49:15;10.00;99.90
60473;DHT22;46318;52.716;6.444;2023-03-31T03:51:41;10.00;99.90
60473;DHT22;46318;52.716;6.444;2023-03-31T03:54:07;10.00;99.90
60473;DHT22;46318;52.716;6.444;2023-03-31T03:56:33;10.00;99.90
60473;DHT22;46318;52.716;6.444;2023-03-31T03:58:59;10.00;99.90
60473;DHT22;46318;52.716;6.444;2023-03-31T04:01:25;10.00;99.90
60473;DHT22;46318;52.716;6.444;2023-03-31T04:03:50;10.00;99.90
60473;DHT22;46318;52.716;6.444;2023-03-31T04:06:16;10.00;99.90
60473;DHT22;46318;52.716;6.444;2023-03-31T04:08:42;10.00;99.90
60473;DHT22;46318;52.716;6.444;2023-03-31T04:11:18;10.00;99.90
60473;DHT22;46318;52.716;6.444;2023-03-31T04:13:45;10.10;99.90
60473;DHT22;46318;52.716;6.444;2023-03-31T04:16:11;10.00;99.90
60473;DHT22;46318;52.716;6.444;2023-03-31T04:18:38;10.00;99.90
60473;DHT22;46318;52.716;6.444;2023-03-31T04:21:13;10.10;99.90
60473;DHT22;46318;52.716;6.444;2023-03-31T04:23:48;10.00;99.90
60473;DHT22;46318;52.716;6.444;2023-03-31T04:26:30;10.10;99.90
60473;DHT22;46318;52.716;6.444;2023-03-31T04:29:11;10.00;99.90
60473;DHT22;46318;52.716;6.444;2023-03-31T04:31:39;10.10;99.90
60473;DHT22;46318;52.716;6.444;2023-03-31T04:34:09;10.00;99.90
60473;DHT22;46318;52.716;6.444;2023-03-31T04:36:41;10.00;99.90
60473;DHT22;46318;52.716;6.444;2023-03-31T04:39:12;10.00;99.90
60473;DHT22;46318;52.716;6.444;2023-03-31T04:41:40;10.00;99.90
60473;DHT22;46318;52.716;6.444;2023-03-31T04:44:06;10.10;99.90
60473;DHT22;46318;52.716;6.444;2023-03-31T04:46:33;10.00;99.90
60473;DHT22;46318;52.716;6.444;2023-03-31T04:49:00;10.00;99.90
60473;DHT22;46318;52.716;6.444;2023-03-31T04:51:27;10.00;99.90
60473;DHT22;46318;52.716;6.444;2023-03-31T04:53:53;10.00;99.90
60473;DHT22;46318;52.716;6.444;2023-03-31T04:56:19;10.00;99.90
60473;DHT22;46318;52.716;6.444;2023-03-31T04:58:47;10.00;99.90
60473;DHT22;46318;52.716;6.444;2023-03-31T05:01:13;10.00;99.90
60473;DHT22;46318;52.716;6.444;2023-03-31T05:03:42;10.00;99.90
60473;DHT22;46318;52.716;6.444;2023-03-31T05:06:09;10.00;99.90
60473;DHT22;46318;52.716;6.444;2023-03-31T05:08:35;10.00;99.90
60473;DHT22;46318;52.716;6.444;2023-03-31T05:11:02;10.00;99.90
60473;DHT22;46318;52.716;6.444;2023-03-31T05:13:28;10.00;99.90
60473;DHT22;46318;52.716;6.444;2023-03-31T05:15:55;10.00;99.90
60473;DHT22;46318;52.716;6.444;2023-03-31T05:18:21;10.00;99.90
60473;DHT22;46318;52.716;6.444;2023-03-31T05:20:47;10.00;99.90
60473;DHT22;46318;52.716;6.444;2023-03-31T05:23:13;10.00;99.90
60473;DHT22;46318;52.716;6.444;2023-03-31T05:25:40;10.00;99.90
60473;DHT22;46318;52.716;6.444;2023-03-31T05:28:07;10.00;99.90
60473;DHT22;46318;52.716;6.444;2023-03-31T05:30:34;10.00;99.90
60473;DHT22;46318;52.716;6.444;2023-03-31T05:33:00;10.00;99.90
60473;DHT22;46318;52.716;6.444;2023-03-31T05:35:26;10.00;99.90
60473;DHT22;46318;52.716;6.444;2023-03-31T05:37:52;10.00;99.90
60473;DHT22;46318;52.716;6.444;2023-03-31T05:40:18;10.00;99.90
60473;DHT22;46318;52.716;6.444;2023-03-31T05:42:44;10.00;99.90
60473;DHT22;46318;52.716;6.444;2023-03-31T05:45:09;10.00;99.90
60473;DHT22;46318;52.716;6.444;2023-03-31T05:47:35;10.00;99.90
60473;DHT22;46318;52.716;6.444;2023-03-31T05:50:02;10.00;99.90
60473;DHT22;46318;52.716;6.444;2023-03-31T05:52:32;10.00;99.90
60473;DHT22;46318;52.716;6.444;2023-03-31T05:54:58;10.00;99.90
60473;DHT22;46318;52.716;6.444;2023-03-31T05:57:23;10.00;99.90
60473;DHT22;46318;52.716;6.444;2023-03-31T05:59:49;10.00;99.90
60473;DHT22;46318;52.716;6.444;2023-03-31T06:02:15;10.00;99.90
60473;DHT22;46318;52.716;6.444;2023-03-31T06:04:41;10.00;99.90
60473;DHT22;46318;52.716;6.444;2023-03-31T06:07:08;10.00;99.90
60473;DHT22;46318;52.716;6.444;2023-03-31T06:09:34;10.00;99.90
60473;DHT22;46318;52.716;6.444;2023-03-31T06:12:00;10.00;99.90
60473;DHT22;46318;52.716;6.444;2023-03-31T06:14:27;10.00;99.90
60473;DHT22;46318;52.716;6.444;2023-03-31T06:16:52;10.00;99.90
60473;DHT22;46318;52.716;6.444;2023-03-31T06:19:18;10.00;99.90
60473;DHT22;46318;52.716;6.444;2023-03-31T06:21:44;10.00;99.90
60473;DHT22;46318;52.716;6.444;2023-03-31T06:24:10;10.00;99.90
60473;DHT22;46318;52.716;6.444;2023-03-31T06:26:36;10.00;99.90
60473;DHT22;46318;52.716;6.444;2023-03-31T06:29:02;10.00;99.90
60473;DHT22;46318;52.716;6.444;2023-03-31T06:31:28;10.00;99.90
60473;DHT22;46318;52.716;6.444;2023-03-31T06:33:54;10.00;99.90
60473;DHT22;46318;52.716;6.444;2023-03-31T06:36:21;10.00;99.90
60473;DHT22;46318;52.716;6.444;2023-03-31T06:38:48;10.00;99.90
60473;DHT22;46318;52.716;6.444;2023-03-31T06:41:15;10.00;99.90
60473;DHT22;46318;52.716;6.444;2023-03-31T06:43:42;10.00;99.90
60473;DHT22;46318;52.716;6.444;2023-03-31T06:46:08;10.00;99.90
60473;DHT22;46318;52.716;6.444;2023-03-31T06:48:34;10.00;99.90
60473;DHT22;46318;52.716;6.444;2023-03-31T06:51:03;10.00;99.90
60473;DHT22;46318;52.716;6.444;2023-03-31T06:53:30;10.00;99.90
60473;DHT22;46318;52.716;6.444;2023-03-31T06:55:56;10.00;99.90
60473;DHT22;46318;52.716;6.444;2023-03-31T06:58:22;10.00;99.90
60473;DHT22;46318;52.716;6.444;2023-03-31T07:00:48;10.00;99.90
60473;DHT22;46318;52.716;6.444;2023-03-31T07:03:15;10.00;99.90
60473;DHT22;46318;52.716;6.444;2023-03-31T07:05:51;10.10;99.90
60473;DHT22;46318;52.716;6.444;2023-03-31T07:08:17;10.10;99.90
60473;DHT22;46318;52.716;6.444;2023-03-31T07:10:44;10.10;99.90
60473;DHT22;46318;52.716;6.444;2023-03-31T07:13:14;10.10;99.90
60473;DHT22;46318;52.716;6.444;2023-03-31T07:15:41;10.10;99.90
60473;DHT22;46318;52.716;6.444;2023-03-31T07:18:07;10.10;99.90
60473;DHT22;46318;52.716;6.444;2023-03-31T07:20:34;10.10;99.90
60473;DHT22;46318;52.716;6.444;2023-03-31T07:23:03;10.10;99.90
60473;DHT22;46318;52.716;6.444;2023-03-31T07:25:30;10.10;99.90
60473;DHT22;46318;52.716;6.444;2023-03-31T07:27:56;10.10;99.90
60473;DHT22;46318;52.716;6.444;2023-03-31T07:30:22;10.10;99.90
60473;DHT22;46318;52.716;6.444;2023-03-31T07:32:50;10.10;99.90
60473;DHT22;46318;52.716;6.444;2023-03-31T07:35:17;10.20;99.90
60473;DHT22;46318;52.716;6.444;2023-03-31T07:37:45;10.20;99.90
60473;DHT22;46318;52.716;6.444;2023-03-31T07:40:25;10.20;99.90
60473;DHT22;46318;52.716;6.444;2023-03-31T07:42:53;10.20;99.90
60473;DHT22;46318;52.716;6.444;2023-03-31T07:45:20;10.20;99.90
60473;DHT22;46318;52.716;6.444;2023-03-31T07:47:48;10.20;99.90
60473;DHT22;46318;52.716;6.444;2023-03-31T07:50:15;10.20;99.90
60473;DHT22;46318;52.716;6.444;2023-03-31T07:52:41;10.30;99.90
60473;DHT22;46318;52.716;6.444;2023-03-31T07:55:08;10.30;99.90
60473;DHT22;46318;52.716;6.444;2023-03-31T07:57:35;10.30;99.90
60473;DHT22;46318;52.716;6.444;2023-03-31T08:00:03;10.30;99.90
60473;DHT22;46318;52.716;6.444;2023-03-31T08:02:32;10.30;99.90
60473;DHT22;46318;52.716;6.444;2023-03-31T08:04:58;10.30;99.90
60473;DHT22;46318;52.716;6.444;2023-03-31T08:07:24;10.30;99.90
60473;DHT22;46318;52.716;6.444;2023-03-31T08:09:50;10.40;99.90
60473;DHT22;46318;52.716;6.444;2023-03-31T08:12:16;10.40;99.90
60473;DHT22;46318;52.716;6.444;2023-03-31T08:14:42;10.40;99.90
60473;DHT22;46318;52.716;6.444;2023-03-31T08:17:09;10.40;99.90
60473;DHT22;46318;52.716;6.444;2023-03-31T08:19:35;10.40;99.90
60473;DHT22;46318;52.716;6.444;2023-03-31T08:22:02;10.40;99.90
60473;DHT22;46318;52.716;6.444;2023-03-31T08:24:28;10.50;99.90
60473;DHT22;46318;52.716;6.444;2023-03-31T08:26:54;10.50;99.90
60473;DHT22;46318;52.716;6.444;2023-03-31T08:29:20;10.50;99.90
60473;DHT22;46318;52.716;6.444;2023-03-31T08:31:46;10.50;99.90
60473;DHT22;46318;52.716;6.444;2023-03-31T08:34:12;10.50;99.90
60473;DHT22;46318;52.716;6.444;2023-03-31T08:36:37;10.60;99.90
60473;DHT22;46318;52.716;6.444;2023-03-31T08:39:03;10.60;99.90
60473;DHT22;46318;52.716;6.444;2023-03-31T08:41:59;10.60;99.90
60473;DHT22;46318;52.716;6.444;2023-03-31T08:44:48;10.60;99.90
60473;DHT22;46318;52.716;6.444;2023-03-31T08:47:22;10.60;99.90
60473;DHT22;46318;52.716;6.444;2023-03-31T08:49:54;10.70;99.90
60473;DHT22;46318;52.716;6.444;2023-03-31T08:52:26;10.60;99.90
60473;DHT22;46318;52.716;6.444;2023-03-31T08:54:58;10.70;99.90
60473;DHT22;46318;52.716;6.444;2023-03-31T08:57:34;10.70;99.90
60473;DHT22;46318;52.716;6.444;2023-03-31T09:00:13;10.70;99.90
60473;DHT22;46318;52.716;6.444;2023-03-31T09:02:57;10.70;99.90
60473;DHT22;46318;52.716;6.444;2023-03-31T09:05:55;10.80;99.90
60473;DHT22;46318;52.716;6.444;2023-03-31T09:08:31;10.80;99.90
60473;DHT22;46318;52.716;6.444;2023-03-31T09:19:42;10.80;99.90
60473;DHT22;46318;52.716;6.444;2023-03-31T09:22:23;10.80;99.90
60473;DHT22;46318;52.716;6.444;2023-03-31T09:27:42;10.90;99.90
60473;DHT22;46318;52.716;6.444;2023-03-31T09:35:44;10.90;99.90
60473;DHT22;46318;52.716;6.444;2023-03-31T09:38:11;10.90;99.90
60473;DHT22;46318;52.716;6.444;2023-03-31T09:40:38;10.90;99.90
60473;DHT22;46318;52.716;6.444;2023-03-31T09:43:25;10.90;99.90
60473;DHT22;46318;52.716;6.444;2023-03-31T09:45:56;11.00;99.90
60473;DHT22;46318;52.716;6.444;2023-03-31T09:48:25;11.00;99.90
60473;DHT22;46318;52.716;6.444;2023-03-31T09:51:02;11.00;99.90
60473;DHT22;46318;52.716;6.444;2023-03-31T09:53:47;11.00;99.90
60473;DHT22;46318;52.716;6.444;2023-03-31T09:56:45;11.00;99.90
60473;DHT22;46318;52.716;6.444;2023-03-31T09:59:19;11.10;99.90
60473;DHT22;46318;52.716;6.444;2023-03-31T10:01:50;11.10;99.90
60473;DHT22;46318;52.716;6.444;2023-03-31T10:04:24;11.10;99.90
60473;DHT22;46318;52.716;6.444;2023-03-31T10:06:51;11.20;99.90
60473;DHT22;46318;52.716;6.444;2023-03-31T10:09:19;11.20;99.90
60473;DHT22;46318;52.716;6.444;2023-03-31T10:11:54;11.20;99.90
60473;DHT22;46318;52.716;6.444;2023-03-31T10:14:48;11.30;99.90
60473;DHT22;46318;52.716;6.444;2023-03-31T10:17:23;11.30;99.90
60473;DHT22;46318;52.716;6.444;2023-03-31T10:24:49;11.40;99.90
60473;DHT22;46318;52.716;6.444;2023-03-31T10:27:20;11.40;99.90
60473;DHT22;46318;52.716;6.444;2023-03-31T10:29:52;11.50;99.90
60473;DHT22;46318;52.716;6.444;2023-03-31T10:32:33;11.50;99.90
60473;DHT22;46318;52.716;6.444;2023-03-31T10:35:26;11.50;99.90
60473;DHT22;46318;52.716;6.444;2023-03-31T10:38:03;11.50;99.90
60473;DHT22;46318;52.716;6.444;2023-03-31T10:40:32;11.50;99.90
60473;DHT22;46318;52.716;6.444;2023-03-31T10:43:17;11.50;99.90
60473;DHT22;46318;52.716;6.444;2023-03-31T10:45:53;11.60;99.90
60473;DHT22;46318;52.716;6.444;2023-03-31T10:48:30;11.60;99.90
60473;DHT22;46318;52.716;6.444;2023-03-31T10:51:17;11.60;99.90
60473;DHT22;46318;52.716;6.444;2023-03-31T10:53:50;11.60;99.90
60473;DHT22;46318;52.716;6.444;2023-03-31T10:59:20;11.60;99.90
60473;DHT22;46318;52.716;6.444;2023-03-31T11:07:58;11.80;99.90
60473;DHT22;46318;52.716;6.444;2023-03-31T11:19:05;11.90;99.90
60473;DHT22;46318;52.716;6.444;2023-03-31T11:25:09;12.00;99.90
60473;DHT22;46318;52.716;6.444;2023-03-31T11:30:31;12.10;99.90
60473;DHT22;46318;52.716;6.444;2023-03-31T11:36:09;12.20;99.90
60473;DHT22;46318;52.716;6.444;2023-03-31T11:41:57;12.30;99.90
60473;DHT22;46318;52.716;6.444;2023-03-31T11:44:27;12.40;99.90
60473;DHT22;46318;52.716;6.444;2023-03-31T11:47:05;12.30;99.90
60473;DHT22;46318;52.716;6.444;2023-03-31T11:49:37;12.30;99.90
60473;DHT22;46318;52.716;6.444;2023-03-31T11:52:13;12.40;99.90
60473;DHT22;46318;52.716;6.444;2023-03-31T11:54:57;12.40;99.90
60473;DHT22;46318;52.716;6.444;2023-03-31T11:57:34;12.40;99.90
60473;DHT22;46318;52.716;6.444;2023-03-31T12:00:16;12.60;99.90
60473;DHT22;46318;52.716;6.444;2023-03-31T12:06:00;12.70;99.90
60473;DHT22;46318;52.716;6.444;2023-03-31T12:08:39;12.80;99.90
60473;DHT22;46318;52.716;6.444;2023-03-31T12:11:22;13.00;99.90
60473;DHT22;46318;52.716;6.444;2023-03-31T12:17:15;13.10;99.90
60473;DHT22;46318;52.716;6.444;2023-03-31T12:20:05;13.10;99.90
60473;DHT22;46318;52.716;6.444;2023-03-31T12:22:46;13.20;99.90
60473;DHT22;46318;52.716;6.444;2023-03-31T12:25:15;13.20;99.90
60473;DHT22;46318;52.716;6.444;2023-03-31T12:27:48;13.20;99.90
60473;DHT22;46318;52.716;6.444;2023-03-31T12:30:36;13.20;99.90
60473;DHT22;46318;52.716;6.444;2023-03-31T12:39:25;13.20;99.90
60473;DHT22;46318;52.716;6.444;2023-03-31T12:44:58;13.20;99.90
60473;DHT22;46318;52.716;6.444;2023-03-31T12:51:13;13.10;99.90
60473;DHT22;46318;52.716;6.444;2023-03-31T12:57:02;13.10;99.90
60473;DHT22;46318;52.716;6.444;2023-03-31T12:59:42;13.10;99.90
60473;DHT22;46318;52.716;6.444;2023-03-31T13:04:38;13.10;99.90
60473;DHT22;46318;52.716;6.444;2023-03-31T13:07:11;13.10;99.90
60473;DHT22;46318;52.716;6.444;2023-03-31T13:15:27;13.10;99.90
60473;DHT22;46318;52.716;6.444;2023-03-31T13:17:58;13.10;99.90
60473;DHT22;46318;52.716;6.444;2023-03-31T13:23:04;13.20;99.90
60473;DHT22;46318;52.716;6.444;2023-03-31T13:28:37;13.20;99.90
60473;DHT22;46318;52.716;6.444;2023-03-31T13:31:10;13.10;99.90
60473;DHT22;46318;52.716;6.444;2023-03-31T13:33:58;13.10;99.90
60473;DHT22;46318;52.716;6.444;2023-03-31T13:36:45;13.10;99.90
60473;DHT22;46318;52.716;6.444;2023-03-31T13:39:39;13.10;99.90
60473;DHT22;46318;52.716;6.444;2023-03-31T13:48:25;13.10;99.90
60473;DHT22;46318;52.716;6.444;2023-03-31T13:51:28;13.10;99.90
60473;DHT22;46318;52.716;6.444;2023-03-31T14:06:05;13.00;99.90
60473;DHT22;46318;52.716;6.444;2023-03-31T14:08:57;13.00;99.90
60473;DHT22;46318;52.716;6.444;2023-03-31T14:11:50;13.00;99.90
60473;DHT22;46318;52.716;6.444;2023-03-31T14:14:17;13.00;99.90
60473;DHT22;46318;52.716;6.444;2023-03-31T14:16:56;13.00;99.90
60473;DHT22;46318;52.716;6.444;2023-03-31T14:25:12;13.00;99.90
60473;DHT22;46318;52.716;6.444;2023-03-31T14:28:06;13.00;99.90
60473;DHT22;46318;52.716;6.444;2023-03-31T14:33:50;12.90;99.90
60473;DHT22;46318;52.716;6.444;2023-03-31T14:36:36;12.90;99.90
60473;DHT22;46318;52.716;6.444;2023-03-31T14:39:16;12.90;99.90
60473;DHT22;46318;52.716;6.444;2023-03-31T14:41:51;12.90;99.90
60473;DHT22;46318;52.716;6.444;2023-03-31T14:44:18;12.90;99.90
60473;DHT22;46318;52.716;6.444;2023-03-31T14:46:45;12.90;99.90
60473;DHT22;46318;52.716;6.444;2023-03-31T14:49:25;12.90;99.90
60473;DHT22;46318;52.716;6.444;2023-03-31T14:51:53;12.90;99.90
60473;DHT22;46318;52.716;6.444;2023-03-31T14:54:23;12.90;99.90
60473;DHT22;46318;52.716;6.444;2023-03-31T14:56:53;12.90;99.90
60473;DHT22;46318;52.716;6.444;2023-03-31T14:59:25;12.90;99.90
60473;DHT22;46318;52.716;6.444;2023-03-31T15:01:53;12.90;99.90
60473;DHT22;46318;52.716;6.444;2023-03-31T15:04:24;12.90;99.90
60473;DHT22;46318;52.716;6.444;2023-03-31T15:06:52;12.90;99.90
60473;DHT22;46318;52.716;6.444;2023-03-31T15:09:23;13.00;99.90
60473;DHT22;46318;52.716;6.444;2023-03-31T15:12:09;13.00;99.90
60473;DHT22;46318;52.716;6.444;2023-03-31T15:14:51;13.00;99.90
60473;DHT22;46318;52.716;6.444;2023-03-31T15:17:27;13.00;99.90
60473;DHT22;46318;52.716;6.444;2023-03-31T15:20:01;13.00;99.90
60473;DHT22;46318;52.716;6.444;2023-03-31T15:22:48;13.00;99.90
60473;DHT22;46318;52.716;6.444;2023-03-31T15:25:14;13.00;99.90
60473;DHT22;46318;52.716;6.444;2023-03-31T15:27:49;13.00;99.90
60473;DHT22;46318;52.716;6.444;2023-03-31T15:30:21;13.00;99.90
60473;DHT22;46318;52.716;6.444;2023-03-31T15:32:48;13.00;99.90
60473;DHT22;46318;52.716;6.444;2023-03-31T15:35:34;13.00;99.90
60473;DHT22;46318;52.716;6.444;2023-03-31T15:38:03;13.00;99.90
60473;DHT22;46318;52.716;6.444;2023-03-31T15:40:40;13.00;99.90
60473;DHT22;46318;52.716;6.444;2023-03-31T15:45:59;12.90;99.90
60473;DHT22;46318;52.716;6.444;2023-03-31T15:48:33;12.90;99.90
60473;DHT22;46318;52.716;6.444;2023-03-31T15:51:16;12.80;99.90
60473;DHT22;46318;52.716;6.444;2023-03-31T15:54:01;12.80;99.90
60473;DHT22;46318;52.716;6.444;2023-03-31T15:56:31;12.80;99.90
60473;DHT22;46318;52.716;6.444;2023-03-31T15:59:02;12.80;99.90
60473;DHT22;46318;52.716;6.444;2023-03-31T16:04:11;12.70;99.90
60473;DHT22;46318;52.716;6.444;2023-03-31T16:09:36;12.60;99.90
60473;DHT22;46318;52.716;6.444;2023-03-31T16:12:39;12.60;99.90
60473;DHT22;46318;52.716;6.444;2023-03-31T16:15:20;12.60;99.90
60473;DHT22;46318;52.716;6.444;2023-03-31T16:17:56;12.50;99.90
60473;DHT22;46318;52.716;6.444;2023-03-31T16:20:32;12.50;99.90
60473;DHT22;46318;52.716;6.444;2023-03-31T16:23:14;12.50;99.90
60473;DHT22;46318;52.716;6.444;2023-03-31T16:25:41;12.50;99.90
60473;DHT22;46318;52.716;6.444;2023-03-31T16:28:13;12.50;99.90
60473;DHT22;46318;52.716;6.444;2023-03-31T16:30:42;12.50;99.90
60473;DHT22;46318;52.716;6.444;2023-03-31T16:33:14;12.50;99.90
60473;DHT22;46318;52.716;6.444;2023-03-31T16:35:47;12.50;99.90
60473;DHT22;46318;52.716;6.444;2023-03-31T16:38:16;12.50;99.90
60473;DHT22;46318;52.716;6.444;2023-03-31T16:40:47;12.50;99.90
60473;DHT22;46318;52.716;6.444;2023-03-31T16:45:55;12.50;99.90
60473;DHT22;46318;52.716;6.444;2023-03-31T16:48:24;12.50;99.90
60473;DHT22;46318;52.716;6.444;2023-03-31T16:50:53;12.50;99.90
60473;DHT22;46318;52.716;6.444;2023-03-31T16:53:33;12.50;99.90
60473;DHT22;46318;52.716;6.444;2023-03-31T16:56:01;12.50;99.90
60473;DHT22;46318;52.716;6.444;2023-03-31T16:58:28;12.50;99.90
60473;DHT22;46318;52.716;6.444;2023-03-31T17:00:55;12.50;99.90
60473;DHT22;46318;52.716;6.444;2023-03-31T17:03:22;12.50;99.90
60473;DHT22;46318;52.716;6.444;2023-03-31T17:05:50;12.50;99.90
60473;DHT22;46318;52.716;6.444;2023-03-31T17:08:19;12.50;99.90
60473;DHT22;46318;52.716;6.444;2023-03-31T17:10:51;12.40;99.90
60473;DHT22;46318;52.716;6.444;2023-03-31T17:13:19;12.40;99.90
60473;DHT22;46318;52.716;6.444;2023-03-31T17:15:45;12.40;99.90
60473;DHT22;46318;52.716;6.444;2023-03-31T17:18:14;12.40;99.90
60473;DHT22;46318;52.716;6.444;2023-03-31T17:20:41;12.40;99.90
60473;DHT22;46318;52.716;6.444;2023-03-31T17:23:07;12.40;99.90
60473;DHT22;46318;52.716;6.444;2023-03-31T17:25:33;12.40;99.90
60473;DHT22;46318;52.716;6.444;2023-03-31T17:28:02;12.40;99.90
60473;DHT22;46318;52.716;6.444;2023-03-31T17:30:29;12.40;99.90
60473;DHT22;46318;52.716;6.444;2023-03-31T17:32:56;12.40;99.90
60473;DHT22;46318;52.716;6.444;2023-03-31T17:35:23;12.30;99.90
60473;DHT22;46318;52.716;6.444;2023-03-31T17:37:50;12.30;99.90
60473;DHT22;46318;52.716;6.444;2023-03-31T17:40:21;12.30;99.90
60473;DHT22;46318;52.716;6.444;2023-03-31T17:42:48;12.30;99.90
60473;DHT22;46318;52.716;6.444;2023-03-31T17:45:14;12.20;99.90
60473;DHT22;46318;52.716;6.444;2023-03-31T17:47:40;12.20;99.90
60473;DHT22;46318;52.716;6.444;2023-03-31T17:50:07;12.10;99.90
60473;DHT22;46318;52.716;6.444;2023-03-31T17:52:34;12.10;99.90
60473;DHT22;46318;52.716;6.444;2023-03-31T17:55:01;12.10;99.90
60473;DHT22;46318;52.716;6.444;2023-03-31T17:57:29;12.10;99.90
60473;DHT22;46318;52.716;6.444;2023-03-31T17:59:56;12.10;99.90
60473;DHT22;46318;52.716;6.444;2023-03-31T18:02:22;12.10;99.90
60473;DHT22;46318;52.716;6.444;2023-03-31T18:04:49;12.10;99.90
60473;DHT22;46318;52.716;6.444;2023-03-31T18:07:15;12.00;99.90
60473;DHT22;46318;52.716;6.444;2023-03-31T18:09:43;12.00;99.90
60473;DHT22;46318;52.716;6.444;2023-03-31T18:12:10;12.00;99.90
60473;DHT22;46318;52.716;6.444;2023-03-31T18:14:35;12.00;99.90
60473;DHT22;46318;52.716;6.444;2023-03-31T18:17:02;11.90;99.90
60473;DHT22;46318;52.716;6.444;2023-03-31T18:19:28;11.90;99.90
60473;DHT22;46318;52.716;6.444;2023-03-31T18:21:54;11.90;99.90
60473;DHT22;46318;52.716;6.444;2023-03-31T18:24:20;11.90;99.90
60473;DHT22;46318;52.716;6.444;2023-03-31T18:26:50;11.90;99.90
60473;DHT22;46318;52.716;6.444;2023-03-31T18:29:15;11.90;99.90
60473;DHT22;46318;52.716;6.444;2023-03-31T18:31:41;11.80;99.90
60473;DHT22;46318;52.716;6.444;2023-03-31T18:34:07;11.80;99.90
60473;DHT22;46318;52.716;6.444;2023-03-31T18:36:33;11.80;99.90
60473;DHT22;46318;52.716;6.444;2023-03-31T18:38:59;11.80;99.90
60473;DHT22;46318;52.716;6.444;2023-03-31T18:41:25;11.70;99.90
60473;DHT22;46318;52.716;6.444;2023-03-31T18:43:51;11.70;99.90
60473;DHT22;46318;52.716;6.444;2023-03-31T18:46:17;11.60;99.90
60473;DHT22;46318;52.716;6.444;2023-03-31T18:48:44;11.60;99.90
60473;DHT22;46318;52.716;6.444;2023-03-31T18:51:10;11.60;99.90
60473;DHT22;46318;52.716;6.444;2023-03-31T18:53:37;11.50;99.90
60473;DHT22;46318;52.716;6.444;2023-03-31T18:56:04;11.50;99.90